createdAt,value
2023-08-02T00:00:30.412Z,16.42
2023-08-02T00:01:30.413Z,16.42
2023-08-02T00:02:30.468Z,16.41
2023-08-02T00:03:30.374Z,16.42
2023-08-02T00:04:30.411Z,16.41
2023-08-02T00:05:30.369Z,16.44
2023-08-02T00:06:30.367Z,16.42
2023-08-02T00:07:30.359Z,16.42
2023-08-02T00:08:30.343Z,16.44
2023-08-02T00:09:30.328Z,16.44
2023-08-02T00:10:30.320Z,16.42
2023-08-02T00:11:30.301Z,16.40
2023-08-02T00:12:30.333Z,16.40
2023-08-02T00:13:30.265Z,16.38
2023-08-02T00:14:30.275Z,16.40
2023-08-02T00:15:30.269Z,16.40
2023-08-02T00:16:30.277Z,16.37
2023-08-02T00:17:30.294Z,16.38
2023-08-02T00:18:30.210Z,16.37
2023-08-02T00:19:30.238Z,16.40
2023-08-02T00:20:30.211Z,16.38
2023-08-02T00:21:30.177Z,16.37
2023-08-02T00:22:30.212Z,16.33
2023-08-02T00:23:30.154Z,16.33
2023-08-02T00:24:30.155Z,16.33
2023-08-02T00:25:30.162Z,16.31
2023-08-02T00:26:30.125Z,16.30
2023-08-02T00:27:30.126Z,16.31
2023-08-02T00:28:30.127Z,16.33
2023-08-02T00:29:30.101Z,16.34
2023-08-02T00:30:30.126Z,16.34
2023-08-02T00:31:30.074Z,16.33
2023-08-02T00:32:30.106Z,16.31
2023-08-02T00:33:30.058Z,16.27
2023-08-02T00:34:30.036Z,16.26
2023-08-02T00:35:30.032Z,16.22
2023-08-02T00:36:30.080Z,16.16
2023-08-02T00:37:30.039Z,16.15
2023-08-02T00:38:30.014Z,16.15
2023-08-02T00:39:29.984Z,16.11
2023-08-02T00:40:29.977Z,16.09
2023-08-02T00:41:29.952Z,16.03
2023-08-02T00:42:29.965Z,15.99
2023-08-02T00:43:29.932Z,16.00
2023-08-02T00:44:29.915Z,15.99
2023-08-02T00:45:29.915Z,16.00
2023-08-02T00:46:29.984Z,15.89
2023-08-02T00:47:30.120Z,15.82
2023-08-02T00:48:29.889Z,15.82
2023-08-02T00:49:29.853Z,15.81
2023-08-02T00:50:29.874Z,15.82
2023-08-02T00:51:29.879Z,15.78
2023-08-02T00:52:29.858Z,15.75
2023-08-02T00:53:29.872Z,15.72
2023-08-02T00:54:29.840Z,15.68
2023-08-02T00:55:29.841Z,15.68
2023-08-02T00:56:29.822Z,15.67
2023-08-02T00:57:29.843Z,15.64
2023-08-02T00:58:29.775Z,15.63
2023-08-02T00:59:29.777Z,15.63
2023-08-02T01:00:29.768Z,15.59
2023-08-02T01:01:29.826Z,15.59
2023-08-02T01:02:29.789Z,15.56
2023-08-02T01:03:29.736Z,15.54
2023-08-02T01:04:29.738Z,15.54
2023-08-02T01:05:29.724Z,15.49
2023-08-02T01:06:29.808Z,15.54
2023-08-02T01:07:29.688Z,15.56
2023-08-02T01:08:29.703Z,15.57
2023-08-02T01:09:29.727Z,15.54
2023-08-02T01:10:29.666Z,15.56
2023-08-02T01:11:29.654Z,15.57
2023-08-02T01:12:29.679Z,15.54
2023-08-02T01:13:29.644Z,15.59
2023-08-02T01:14:32.383Z,15.60
2023-08-02T01:15:29.626Z,15.64
2023-08-02T01:16:37.727Z,15.61
2023-08-02T01:17:29.737Z,15.60
2023-08-02T01:18:29.713Z,15.54
2023-08-02T01:19:29.562Z,15.54
2023-08-02T01:20:29.607Z,15.51
2023-08-02T01:21:29.582Z,15.45
2023-08-02T01:22:29.527Z,15.45
2023-08-02T01:23:29.506Z,15.43
2023-08-02T01:24:29.540Z,15.41
2023-08-02T01:25:29.532Z,15.39
2023-08-02T01:26:29.480Z,15.33
2023-08-02T01:27:29.474Z,15.33
2023-08-02T01:28:29.484Z,15.31
2023-08-02T01:29:29.471Z,15.33
2023-08-02T01:30:29.469Z,15.28
2023-08-02T01:31:29.490Z,15.31
2023-08-02T01:32:29.521Z,15.28
2023-08-02T01:33:29.412Z,15.28
2023-08-02T01:34:29.436Z,15.31
2023-08-02T01:35:29.389Z,15.36
2023-08-02T01:36:29.385Z,15.30
2023-08-02T01:37:29.378Z,15.24
2023-08-02T01:38:29.372Z,15.20
2023-08-02T01:39:29.380Z,15.20
2023-08-02T01:40:29.343Z,15.20
2023-08-02T01:41:29.319Z,15.21
2023-08-02T01:42:29.323Z,15.24
2023-08-02T01:43:29.307Z,15.15
2023-08-02T01:44:29.294Z,15.11
2023-08-02T01:45:29.316Z,15.11
2023-08-02T01:46:29.294Z,15.09
2023-08-02T01:47:29.338Z,15.11
2023-08-02T01:48:29.331Z,15.12
2023-08-02T01:49:29.311Z,15.11
2023-08-02T01:50:30.107Z,15.05
2023-08-02T01:51:29.287Z,15.05
2023-08-02T01:52:29.297Z,15.02
2023-08-02T01:53:29.256Z,15.02
2023-08-02T01:54:29.298Z,14.94
2023-08-02T01:55:29.274Z,14.93
2023-08-02T01:56:29.267Z,14.88
2023-08-02T01:57:29.232Z,14.94
2023-08-02T01:58:29.174Z,14.98
2023-08-02T01:59:29.145Z,14.99
2023-08-02T02:00:29.152Z,14.98
2023-08-02T02:01:29.134Z,14.95
2023-08-02T02:02:29.251Z,14.95
2023-08-02T02:03:29.192Z,14.93
2023-08-02T02:04:29.089Z,14.94
2023-08-02T02:05:29.066Z,14.91
2023-08-02T02:06:29.138Z,14.88
2023-08-02T02:07:29.076Z,14.93
2023-08-02T02:08:29.046Z,14.93
2023-08-02T02:09:29.041Z,14.91
2023-08-02T02:10:29.048Z,14.93
2023-08-02T02:11:28.999Z,14.94
2023-08-02T02:12:29.021Z,14.94
2023-08-02T02:13:29.026Z,14.94
2023-08-02T02:14:28.966Z,14.94
2023-08-02T02:15:29.029Z,14.95
2023-08-02T02:16:28.996Z,14.94
2023-08-02T02:17:28.994Z,14.99
2023-08-02T02:18:29.012Z,15.01
2023-08-02T02:19:28.934Z,14.99
2023-08-02T02:20:28.920Z,14.99
2023-08-02T02:21:28.980Z,15.02
2023-08-02T02:22:28.928Z,15.02
2023-08-02T02:23:28.891Z,14.99
2023-08-02T02:24:28.881Z,15.01
2023-08-02T02:25:28.937Z,15.03
2023-08-02T02:26:28.860Z,15.03
2023-08-02T02:27:28.861Z,15.06
2023-08-02T02:28:28.825Z,15.09
2023-08-02T02:29:28.818Z,15.05
2023-08-02T02:30:28.843Z,15.02
2023-08-02T02:31:28.845Z,15.03
2023-08-02T02:32:28.918Z,15.02
2023-08-02T02:33:28.780Z,15.02
2023-08-02T02:34:28.795Z,15.02
2023-08-02T02:35:28.753Z,15.02
2023-08-02T02:36:28.726Z,15.03
2023-08-02T02:37:28.734Z,15.03
2023-08-02T02:38:28.753Z,15.05
2023-08-02T02:39:28.711Z,15.06
2023-08-02T02:40:28.728Z,15.09
2023-08-02T02:41:28.710Z,15.11
2023-08-02T02:42:28.674Z,15.08
2023-08-02T02:43:28.670Z,15.08
2023-08-02T02:44:28.673Z,15.03
2023-08-02T02:45:28.661Z,15.01
2023-08-02T02:46:28.694Z,14.99
2023-08-02T02:47:28.644Z,15.01
2023-08-02T02:48:28.637Z,15.02
2023-08-02T02:49:28.616Z,15.05
2023-08-02T02:50:28.648Z,15.08
2023-08-02T02:51:28.601Z,15.06
2023-08-02T02:52:28.596Z,15.11
2023-08-02T02:53:28.581Z,15.17
2023-08-02T02:54:28.579Z,15.20
2023-08-02T02:55:28.544Z,15.24
2023-08-02T02:56:28.548Z,15.26
2023-08-02T02:57:28.539Z,15.26
2023-08-02T02:58:28.537Z,15.24
2023-08-02T02:59:28.505Z,15.24
2023-08-02T03:00:28.488Z,15.26
2023-08-02T03:01:28.484Z,15.26
2023-08-02T03:02:28.563Z,15.28
2023-08-02T03:03:28.477Z,15.30
2023-08-02T03:04:28.468Z,15.31
2023-08-02T03:05:28.510Z,15.30
2023-08-02T03:06:28.491Z,15.28
2023-08-02T03:07:28.474Z,15.33
2023-08-02T03:08:28.450Z,15.38
2023-08-02T03:09:28.400Z,15.38
2023-08-02T03:10:28.434Z,15.41
2023-08-02T03:11:28.427Z,15.41
2023-08-02T03:12:28.383Z,15.41
2023-08-02T03:13:28.345Z,15.42
2023-08-02T03:14:28.334Z,15.45
2023-08-02T03:15:28.286Z,15.46
2023-08-02T03:16:28.328Z,15.48
2023-08-02T03:17:28.360Z,15.49
2023-08-02T03:18:28.333Z,15.51
2023-08-02T03:19:28.287Z,15.52
2023-08-02T03:20:28.278Z,15.52
2023-08-02T03:21:28.299Z,15.51
2023-08-02T03:22:28.263Z,15.48
2023-08-02T03:23:28.230Z,15.49
2023-08-02T03:24:28.219Z,15.49
2023-08-02T03:25:28.233Z,15.49
2023-08-02T03:26:28.251Z,15.51
2023-08-02T03:27:28.188Z,15.54
2023-08-02T03:28:28.227Z,15.56
2023-08-02T03:29:28.207Z,15.57
2023-08-02T03:30:28.134Z,15.56
2023-08-02T03:31:28.155Z,15.56
2023-08-02T03:32:28.148Z,15.57
2023-08-02T03:33:28.084Z,15.57
2023-08-02T03:34:28.131Z,15.59
2023-08-02T03:35:28.081Z,15.63
2023-08-02T03:36:28.089Z,15.66
2023-08-02T03:37:28.045Z,15.68
2023-08-02T03:38:29.757Z,15.68
2023-08-02T03:39:28.011Z,15.68
2023-08-02T03:40:28.086Z,15.70
2023-08-02T03:41:27.990Z,15.67
2023-08-02T03:42:27.992Z,15.68
2023-08-02T03:43:27.973Z,15.72
2023-08-02T03:44:28.100Z,15.72
2023-08-02T03:45:27.959Z,15.75
2023-08-02T03:46:27.995Z,15.75
2023-08-02T03:47:27.946Z,15.74
2023-08-02T03:48:27.925Z,15.68
2023-08-02T03:49:27.954Z,15.70
2023-08-02T03:50:27.922Z,15.75
2023-08-02T03:51:27.888Z,15.76
2023-08-02T03:52:27.901Z,15.75
2023-08-02T03:53:27.882Z,15.75
2023-08-02T03:54:27.880Z,15.72
2023-08-02T03:55:27.872Z,15.70
2023-08-02T03:56:27.886Z,15.68
2023-08-02T03:57:27.839Z,15.67
2023-08-02T03:58:27.861Z,15.64
2023-08-02T03:59:27.843Z,15.67
2023-08-02T04:00:27.804Z,15.68
2023-08-02T04:01:27.875Z,15.72
2023-08-02T04:02:27.830Z,15.70
2023-08-02T04:03:27.831Z,15.70
2023-08-02T04:04:27.747Z,15.72
2023-08-02T04:05:27.756Z,15.74
2023-08-02T04:06:27.819Z,15.70
2023-08-02T04:07:27.712Z,15.68
2023-08-02T04:08:27.723Z,15.74
2023-08-02T04:09:27.763Z,15.75
2023-08-02T04:10:27.696Z,15.76
2023-08-02T04:11:27.723Z,15.74
2023-08-02T04:12:27.679Z,15.75
2023-08-02T04:13:27.699Z,15.74
2023-08-02T04:14:27.652Z,15.76
2023-08-02T04:15:27.723Z,15.68
2023-08-02T04:16:27.663Z,15.64
2023-08-02T04:17:27.733Z,15.61
2023-08-02T04:18:27.615Z,15.61
2023-08-02T04:19:27.605Z,15.56
2023-08-02T04:20:27.638Z,15.45
2023-08-02T04:21:27.673Z,15.38
2023-08-02T04:22:27.774Z,15.35
2023-08-02T04:23:27.604Z,15.33
2023-08-02T04:24:27.646Z,15.35
2023-08-02T04:25:27.544Z,15.36
2023-08-02T04:26:27.544Z,15.28
2023-08-02T04:27:27.549Z,15.26
2023-08-02T04:28:27.556Z,15.21
2023-08-02T04:29:27.493Z,15.17
2023-08-02T04:30:27.483Z,15.13
2023-08-02T04:31:27.620Z,15.11
2023-08-02T04:32:27.585Z,15.13
2023-08-02T04:33:27.446Z,15.19
2023-08-02T04:34:27.437Z,15.13
2023-08-02T04:35:27.441Z,15.08
2023-08-02T04:36:27.475Z,15.09
2023-08-02T04:37:27.469Z,15.06
2023-08-02T04:38:27.423Z,15.03
2023-08-02T04:39:27.408Z,15.03
2023-08-02T04:40:27.445Z,15.01
2023-08-02T04:41:27.394Z,15.02
2023-08-02T04:42:27.400Z,15.01
2023-08-02T04:43:27.339Z,15.03
2023-08-02T04:44:27.340Z,15.02
2023-08-02T04:45:27.349Z,15.01
2023-08-02T04:46:27.427Z,15.05
2023-08-02T04:47:27.340Z,15.11
2023-08-02T04:48:27.292Z,15.13
2023-08-02T04:49:27.314Z,15.20
2023-08-02T04:50:27.286Z,15.21
2023-08-02T04:51:27.256Z,15.19
2023-08-02T04:52:27.272Z,15.12
2023-08-02T04:53:27.229Z,15.05
2023-08-02T04:54:27.240Z,15.02
2023-08-02T04:55:27.224Z,14.98
2023-08-02T04:56:27.224Z,14.93
2023-08-02T04:57:27.215Z,14.93
2023-08-02T04:58:27.174Z,14.91
2023-08-02T04:59:27.229Z,14.87
2023-08-02T05:00:27.150Z,14.87
2023-08-02T05:01:27.186Z,14.81
2023-08-02T05:02:27.340Z,14.81
2023-08-02T05:03:27.133Z,14.91
2023-08-02T05:04:27.199Z,14.95
2023-08-02T05:05:27.143Z,14.98
2023-08-02T05:06:27.136Z,14.93
2023-08-02T05:07:27.162Z,14.91
2023-08-02T05:08:27.086Z,14.93
2023-08-02T05:09:27.119Z,14.91
2023-08-02T05:10:27.085Z,14.94
2023-08-02T05:11:27.039Z,14.93
2023-08-02T05:12:27.054Z,14.94
2023-08-02T05:13:27.049Z,14.95
2023-08-02T05:14:27.042Z,14.93
2023-08-02T05:15:27.011Z,14.94
2023-08-02T05:16:27.022Z,14.94
2023-08-02T05:17:27.004Z,14.93
2023-08-02T05:18:26.983Z,14.86
2023-08-02T05:19:26.980Z,14.84
2023-08-02T05:20:26.958Z,14.86
2023-08-02T05:21:26.987Z,14.84
2023-08-02T05:22:26.953Z,14.87
2023-08-02T05:23:26.978Z,14.86
2023-08-02T05:24:26.912Z,14.86
2023-08-02T05:25:26.929Z,14.87
2023-08-02T05:26:26.894Z,14.87
2023-08-02T05:27:26.949Z,14.86
2023-08-02T05:28:26.883Z,14.81
2023-08-02T05:29:26.867Z,14.80
2023-08-02T05:30:26.855Z,14.81
2023-08-02T05:31:26.853Z,14.81
2023-08-02T05:32:26.863Z,14.81
2023-08-02T05:33:26.796Z,14.72
2023-08-02T05:34:26.853Z,14.69
2023-08-02T05:35:26.816Z,14.69
2023-08-02T05:36:26.794Z,14.69
2023-08-02T05:37:26.846Z,14.72
2023-08-02T05:38:26.771Z,14.75
2023-08-02T05:39:26.747Z,14.83
2023-08-02T05:40:26.893Z,14.87
2023-08-02T05:41:26.775Z,14.87
2023-08-02T05:42:26.746Z,14.86
2023-08-02T05:43:26.718Z,14.88
2023-08-02T05:44:26.697Z,14.94
2023-08-02T05:45:26.759Z,14.99
2023-08-02T05:46:26.715Z,14.98
2023-08-02T05:47:26.694Z,14.98
2023-08-02T05:48:26.665Z,14.98
2023-08-02T05:49:26.672Z,14.95
2023-08-02T05:50:26.637Z,14.91
2023-08-02T05:51:26.634Z,14.87
2023-08-02T05:52:26.616Z,14.87
2023-08-02T05:53:26.667Z,14.88
2023-08-02T05:54:26.630Z,14.87
2023-08-02T05:55:26.610Z,14.90
2023-08-02T05:56:26.612Z,14.91
2023-08-02T05:57:26.563Z,14.88
2023-08-02T05:58:26.576Z,14.86
2023-08-02T05:59:26.547Z,14.91
2023-08-02T06:00:26.558Z,14.91
2023-08-02T06:01:26.618Z,14.95
2023-08-02T06:02:26.562Z,14.88
2023-08-02T06:03:26.539Z,14.88
2023-08-02T06:04:26.537Z,14.91
2023-08-02T06:05:26.483Z,14.95
2023-08-02T06:06:26.544Z,14.98
2023-08-02T06:07:26.483Z,14.99
2023-08-02T06:08:26.452Z,15.03
2023-08-02T06:09:26.474Z,15.06
2023-08-02T06:10:26.425Z,15.13
2023-08-02T06:11:26.416Z,15.20
2023-08-02T06:12:26.500Z,15.17
2023-08-02T06:13:26.439Z,15.19
2023-08-02T06:14:26.409Z,15.19
2023-08-02T06:15:26.419Z,15.20
2023-08-02T06:16:26.468Z,15.24
2023-08-02T06:17:26.474Z,15.20
2023-08-02T06:18:26.348Z,15.17
2023-08-02T06:19:26.456Z,15.17
2023-08-02T06:20:26.338Z,15.17
2023-08-02T06:21:26.314Z,15.19
2023-08-02T06:22:26.291Z,15.19
2023-08-02T06:23:26.316Z,15.26
2023-08-02T06:24:26.281Z,15.33
2023-08-02T06:25:26.258Z,15.38
2023-08-02T06:26:26.235Z,15.41
2023-08-02T06:27:26.249Z,15.43
2023-08-02T06:28:26.273Z,15.45
2023-08-02T06:29:26.237Z,15.45
2023-08-02T06:30:26.205Z,15.51
2023-08-02T06:31:26.269Z,15.57
2023-08-02T06:32:26.265Z,15.60
2023-08-02T06:33:26.303Z,15.57
2023-08-02T06:34:26.182Z,15.57
2023-08-02T06:35:26.157Z,15.59
2023-08-02T06:36:26.181Z,15.59
2023-08-02T06:37:26.155Z,15.56
2023-08-02T06:38:26.146Z,15.54
2023-08-02T06:39:26.124Z,15.54
2023-08-02T06:40:26.102Z,15.57
2023-08-02T06:41:26.106Z,15.63
2023-08-02T06:42:26.180Z,15.67
2023-08-02T06:43:26.100Z,15.76
2023-08-02T06:44:26.095Z,15.88
2023-08-02T06:45:26.070Z,15.96
2023-08-02T06:46:26.227Z,16.04
2023-08-02T06:47:26.049Z,16.01
2023-08-02T06:48:26.031Z,15.93
2023-08-02T06:49:26.096Z,15.85
2023-08-02T06:50:26.005Z,15.78
2023-08-02T06:51:26.004Z,15.75
2023-08-02T06:52:25.963Z,15.76
2023-08-02T06:53:25.978Z,15.81
2023-08-02T06:54:25.953Z,15.81
2023-08-02T06:55:25.960Z,15.76
2023-08-02T06:56:25.954Z,15.78
2023-08-02T06:57:25.953Z,15.79
2023-08-02T06:58:25.902Z,15.78
2023-08-02T06:59:26.914Z,15.76
2023-08-02T07:00:25.935Z,15.72
2023-08-02T07:01:25.957Z,15.75
2023-08-02T07:02:25.931Z,15.72
2023-08-02T07:03:25.889Z,15.75
2023-08-02T07:04:25.924Z,15.84
2023-08-02T07:05:25.868Z,15.86
2023-08-02T07:06:25.904Z,15.85
2023-08-02T07:07:25.814Z,15.86
2023-08-02T07:08:25.814Z,15.86
2023-08-02T07:09:25.864Z,15.93
2023-08-02T07:10:25.796Z,15.92
2023-08-02T07:11:35.703Z,15.97
2023-08-02T07:12:25.757Z,16.03
2023-08-02T07:13:25.755Z,16.12
2023-08-02T07:14:25.777Z,16.25
2023-08-02T07:15:25.763Z,16.44
2023-08-02T07:16:25.822Z,16.63
2023-08-02T07:17:25.743Z,16.65
2023-08-02T07:18:25.699Z,16.71
2023-08-02T07:19:25.715Z,16.73
2023-08-02T07:20:25.689Z,16.67
2023-08-02T07:21:25.700Z,16.60
2023-08-02T07:22:25.676Z,16.59
2023-08-02T07:23:25.654Z,16.58
2023-08-02T07:24:25.635Z,16.55
2023-08-02T07:25:25.628Z,16.52
2023-08-02T07:26:25.644Z,16.55
2023-08-02T07:27:25.668Z,16.48
2023-08-02T07:28:25.608Z,16.42
2023-08-02T07:29:25.601Z,16.35
2023-08-02T07:30:25.578Z,16.27
2023-08-02T07:31:25.660Z,16.27
2023-08-02T07:32:25.633Z,16.26
2023-08-02T07:33:25.584Z,16.25
2023-08-02T07:34:25.548Z,16.30
2023-08-02T07:35:25.535Z,16.30
2023-08-02T07:36:25.495Z,16.25
2023-08-02T07:37:25.523Z,16.25
2023-08-02T07:38:25.559Z,16.23
2023-08-02T07:39:25.478Z,16.23
2023-08-02T07:40:25.463Z,16.26
2023-08-02T07:41:25.613Z,16.31
2023-08-02T07:42:25.538Z,16.33
2023-08-02T07:43:26.150Z,16.34
2023-08-02T07:44:25.475Z,16.34
2023-08-02T07:45:25.457Z,16.41
2023-08-02T07:46:25.462Z,16.45
2023-08-02T07:47:25.462Z,16.50
2023-08-02T07:48:25.381Z,16.48
2023-08-02T07:49:25.379Z,16.55
2023-08-02T07:50:25.365Z,16.53
2023-08-02T07:51:25.410Z,16.58
2023-08-02T07:52:25.348Z,16.56
2023-08-02T07:53:25.356Z,16.62
2023-08-02T07:54:25.316Z,16.67
2023-08-02T07:55:25.321Z,16.73
2023-08-02T07:56:25.335Z,16.77
2023-08-02T07:57:25.605Z,16.77
2023-08-02T07:58:25.276Z,16.90
2023-08-02T07:59:25.274Z,16.99
2023-08-02T08:00:25.335Z,17.06
2023-08-02T08:01:25.295Z,17.20
2023-08-02T08:02:25.315Z,17.25
2023-08-02T08:03:25.230Z,17.17
2023-08-02T08:04:25.246Z,17.23
2023-08-02T08:05:25.205Z,17.18
2023-08-02T08:06:25.354Z,17.23
2023-08-02T08:07:25.202Z,17.14
2023-08-02T08:08:25.175Z,17.07
2023-08-02T08:09:25.164Z,17.03
2023-08-02T08:10:25.162Z,17.03
2023-08-02T08:11:25.140Z,17.04
2023-08-02T08:12:25.125Z,17.04
2023-08-02T08:13:25.130Z,17.13
2023-08-02T08:14:25.114Z,17.14
2023-08-02T08:15:25.101Z,17.25
2023-08-02T08:16:25.143Z,17.25
2023-08-02T08:17:25.098Z,17.23
2023-08-02T08:18:25.063Z,17.22
2023-08-02T08:19:25.090Z,17.20
2023-08-02T08:20:25.072Z,17.23
2023-08-02T08:21:25.014Z,17.11
2023-08-02T08:22:25.039Z,17.15
2023-08-02T08:23:25.018Z,17.17
2023-08-02T08:24:25.010Z,17.18
2023-08-02T08:25:25.020Z,17.18
2023-08-02T08:26:25.004Z,17.15
2023-08-02T08:27:24.955Z,17.07
2023-08-02T08:28:24.958Z,17.11
2023-08-02T08:29:24.989Z,17.14
2023-08-02T08:30:25.010Z,17.22
2023-08-02T08:31:24.962Z,17.30
2023-08-02T08:32:25.072Z,17.36
2023-08-02T08:33:24.922Z,17.33
2023-08-02T08:34:24.920Z,17.30
2023-08-02T08:35:24.865Z,17.28
2023-08-02T08:36:24.892Z,17.26
2023-08-02T08:37:24.857Z,17.22
2023-08-02T08:38:24.883Z,17.18
2023-08-02T08:39:24.865Z,17.28
2023-08-02T08:40:24.848Z,17.35
2023-08-02T08:41:24.821Z,17.35
2023-08-02T08:42:24.844Z,17.46
2023-08-02T08:43:24.824Z,17.43
2023-08-02T08:44:24.794Z,17.38
2023-08-02T08:45:24.762Z,17.43
2023-08-02T08:46:24.832Z,17.51
2023-08-02T08:47:24.781Z,17.47
2023-08-02T08:48:24.774Z,17.44
2023-08-02T08:49:24.760Z,17.44
2023-08-02T08:50:24.829Z,17.43
2023-08-02T08:51:24.705Z,17.46
2023-08-02T08:52:24.704Z,17.46
2023-08-02T08:53:24.740Z,17.38
2023-08-02T08:54:24.689Z,17.33
2023-08-02T08:55:24.660Z,17.28
2023-08-02T08:56:24.648Z,17.18
2023-08-02T08:57:24.720Z,17.22
2023-08-02T08:58:24.659Z,17.22
2023-08-02T08:59:24.621Z,17.18
2023-08-02T09:00:24.741Z,17.11
2023-08-02T09:01:24.682Z,17.07
2023-08-02T09:02:24.640Z,17.13
2023-08-02T09:03:24.645Z,17.14
2023-08-02T09:04:24.583Z,17.15
2023-08-02T09:05:24.560Z,17.17
2023-08-02T09:06:24.606Z,17.15
2023-08-02T09:07:24.558Z,17.06
2023-08-02T09:08:24.544Z,17.04
2023-08-02T09:09:24.563Z,17.04
2023-08-02T09:10:24.529Z,17.04
2023-08-02T09:11:24.531Z,17.03
2023-08-02T09:12:24.495Z,16.99
2023-08-02T09:13:24.486Z,17.06
2023-08-02T09:14:24.487Z,17.20
2023-08-02T09:15:24.487Z,17.36
2023-08-02T09:16:24.562Z,17.47
2023-08-02T09:17:24.497Z,17.59
2023-08-02T09:18:24.444Z,17.73
2023-08-02T09:19:24.430Z,17.79
2023-08-02T09:20:24.458Z,17.81
2023-08-02T09:21:24.394Z,17.85
2023-08-02T09:22:26.369Z,17.82
2023-08-02T09:23:24.380Z,17.82
2023-08-02T09:24:24.381Z,17.92
2023-08-02T09:25:24.359Z,18.00
2023-08-02T09:26:24.344Z,18.09
2023-08-02T09:27:24.329Z,18.18
2023-08-02T09:28:24.380Z,18.33
2023-08-02T09:29:24.314Z,18.34
2023-08-02T09:30:24.289Z,18.44
2023-08-02T09:31:24.376Z,18.57
2023-08-02T09:32:24.421Z,18.57
2023-08-02T09:33:24.349Z,18.54
2023-08-02T09:34:24.280Z,18.46
2023-08-02T09:35:24.257Z,18.27
2023-08-02T09:36:24.268Z,18.37
2023-08-02T09:37:24.205Z,18.42
2023-08-02T09:38:24.202Z,18.40
2023-08-02T09:39:24.329Z,18.43
2023-08-02T09:40:24.290Z,18.39
2023-08-02T09:41:51.754Z,18.36
2023-08-02T09:42:24.185Z,18.46
2023-08-02T09:43:24.150Z,18.40
2023-08-02T09:44:24.247Z,18.44
2023-08-02T09:45:24.139Z,18.55
2023-08-02T09:46:24.175Z,18.67
2023-08-02T09:47:24.121Z,18.72
2023-08-02T09:48:24.123Z,18.59
2023-08-02T09:49:24.133Z,18.59
2023-08-02T09:50:24.088Z,18.70
2023-08-02T09:51:24.053Z,18.83
2023-08-02T09:52:24.105Z,18.80
2023-08-02T09:53:24.093Z,18.73
2023-08-02T09:54:24.036Z,18.77
2023-08-02T09:55:24.036Z,18.83
2023-08-02T09:56:24.022Z,18.77
2023-08-02T09:57:24.000Z,18.90
2023-08-02T09:58:24.012Z,18.97
2023-08-02T09:59:23.993Z,18.92
2023-08-02T10:00:24.001Z,18.95
2023-08-02T10:01:23.989Z,18.91
2023-08-02T10:02:24.041Z,18.94
2023-08-02T10:03:26.337Z,18.92
2023-08-02T10:04:23.978Z,19.02
2023-08-02T10:05:23.936Z,19.11
2023-08-02T10:06:24.033Z,19.08
2023-08-02T10:07:24.022Z,19.05
2023-08-02T10:08:23.985Z,18.99
2023-08-02T10:09:23.876Z,19.02
2023-08-02T10:10:23.878Z,19.01
2023-08-02T10:11:23.862Z,18.94
2023-08-02T10:12:23.896Z,18.84
2023-08-02T10:13:23.883Z,18.79
2023-08-02T10:14:23.830Z,18.72
2023-08-02T10:15:23.858Z,18.67
2023-08-02T10:16:24.196Z,18.65
2023-08-02T10:17:23.832Z,18.61
2023-08-02T10:18:23.887Z,18.59
2023-08-02T10:19:24.517Z,18.54
2023-08-02T10:20:23.765Z,18.55
2023-08-02T10:21:23.800Z,18.55
2023-08-02T10:22:23.797Z,18.50
2023-08-02T10:23:24.700Z,18.47
2023-08-02T10:24:23.725Z,18.40
2023-08-02T10:25:23.758Z,18.37
2023-08-02T10:26:23.706Z,18.36
2023-08-02T10:27:23.721Z,18.36
2023-08-02T10:28:23.677Z,18.31
2023-08-02T10:29:23.656Z,18.28
2023-08-02T10:30:23.674Z,18.24
2023-08-02T10:31:23.677Z,18.24
2023-08-02T10:32:23.715Z,18.24
2023-08-02T10:33:23.695Z,18.21
2023-08-02T10:34:23.643Z,18.25
2023-08-02T10:35:23.643Z,18.27
2023-08-02T10:36:23.644Z,18.33
2023-08-02T10:37:23.671Z,18.33
2023-08-02T10:38:23.564Z,18.43
2023-08-02T10:39:23.579Z,18.47
2023-08-02T10:40:23.660Z,18.62
2023-08-02T10:41:23.571Z,18.73
2023-08-02T10:42:23.545Z,18.86
2023-08-02T10:43:23.525Z,18.95
2023-08-02T10:44:23.544Z,19.01
2023-08-02T10:45:23.538Z,19.01
2023-08-02T10:46:23.607Z,18.98
2023-08-02T10:47:23.506Z,19.02
2023-08-02T10:48:23.492Z,19.08
2023-08-02T10:49:23.580Z,19.21
2023-08-02T10:50:23.502Z,19.29
2023-08-02T10:51:23.468Z,19.47
2023-08-02T10:52:23.433Z,19.75
2023-08-02T10:53:23.418Z,19.98
2023-08-02T10:54:23.700Z,20.35
2023-08-02T10:55:23.401Z,20.76
2023-08-02T10:56:23.415Z,20.89
2023-08-02T10:57:23.371Z,20.99
2023-08-02T10:58:23.391Z,21.05
2023-08-02T10:59:23.415Z,21.16
2023-08-02T11:00:23.353Z,21.14
2023-08-02T11:01:23.389Z,20.91
2023-08-02T11:02:23.341Z,20.84
2023-08-02T11:03:23.345Z,20.66
2023-08-02T11:04:23.325Z,20.59
2023-08-02T11:05:23.301Z,20.66
2023-08-02T11:06:23.365Z,20.71
2023-08-02T11:07:23.271Z,20.68
2023-08-02T11:08:23.308Z,20.69
2023-08-02T11:09:23.235Z,20.90
2023-08-02T11:10:23.221Z,20.89
2023-08-02T11:11:23.258Z,20.89
2023-08-02T11:12:23.658Z,20.72
2023-08-02T11:13:23.324Z,20.66
2023-08-02T11:14:23.192Z,20.66
2023-08-02T11:15:23.206Z,20.69
2023-08-02T11:16:23.199Z,20.72
2023-08-02T11:19:23.543Z,20.51
2023-08-02T11:20:23.352Z,20.59
2023-08-02T11:21:23.138Z,20.62
2023-08-02T11:22:23.148Z,20.68
2023-08-02T11:23:23.128Z,20.77
2023-08-02T11:24:26.943Z,20.89
2023-08-02T11:26:23.097Z,21.05
2023-08-02T11:27:23.074Z,21.14
2023-08-02T11:28:23.061Z,21.30
2023-08-02T11:29:23.041Z,21.46
2023-08-02T11:30:28.218Z,21.63
2023-08-02T11:31:23.061Z,21.85
2023-08-02T11:32:23.005Z,22.01
2023-08-02T11:33:23.010Z,22.28
2023-08-02T11:34:23.031Z,22.32
2023-08-02T11:35:22.979Z,22.46
2023-08-02T11:36:23.091Z,22.37
2023-08-02T11:37:23.030Z,22.53
2023-08-02T11:38:22.992Z,22.74
2023-08-02T11:39:22.949Z,22.74
2023-08-02T11:41:22.932Z,23.02
2023-08-02T11:42:22.958Z,23.02
2023-08-02T11:43:24.457Z,23.12
2023-08-02T11:44:22.876Z,23.35
2023-08-02T11:45:23.309Z,23.39
2023-08-02T11:46:23.110Z,23.22
2023-08-02T11:47:22.864Z,22.93
2023-08-02T11:48:22.888Z,22.78
2023-08-02T11:49:22.878Z,22.64
2023-08-02T11:50:22.880Z,22.52
2023-08-02T11:51:22.964Z,22.52
2023-08-02T11:52:22.788Z,22.71
2023-08-02T11:53:22.851Z,22.82
2023-08-02T11:54:22.848Z,22.77
2023-08-02T11:55:22.848Z,22.87
2023-08-02T11:56:22.745Z,22.96
2023-08-02T11:57:22.773Z,23.01
2023-08-02T11:58:22.840Z,23.08
2023-08-02T11:59:22.858Z,23.26
2023-08-02T12:00:22.718Z,23.38
2023-08-02T12:01:22.760Z,23.40
2023-08-02T12:02:22.737Z,23.27
2023-08-02T12:03:22.735Z,23.23
2023-08-02T12:04:22.746Z,23.34
2023-08-02T12:05:22.661Z,23.46
2023-08-02T12:06:22.764Z,23.45
2023-08-02T12:07:22.647Z,23.47
2023-08-02T12:08:22.655Z,23.53
2023-08-02T12:09:22.626Z,23.52
2023-08-02T12:10:22.591Z,23.47
2023-08-02T12:11:22.617Z,23.57
2023-08-02T12:12:22.576Z,23.67
2023-08-02T12:13:22.600Z,23.79
2023-08-02T12:14:22.557Z,23.90
2023-08-02T12:15:22.576Z,23.87
2023-08-02T12:16:22.598Z,23.83
2023-08-02T12:17:22.553Z,24.01
2023-08-02T12:18:22.562Z,24.07
2023-08-02T12:19:22.516Z,24.14
2023-08-02T12:20:22.493Z,24.12
2023-08-02T12:21:22.526Z,24.05
2023-08-02T12:22:22.493Z,24.08
2023-08-02T12:23:22.476Z,24.01
2023-08-02T12:24:22.534Z,24.01
2023-08-02T12:25:22.462Z,24.10
2023-08-02T12:26:22.415Z,24.20
2023-08-02T12:27:22.436Z,24.29
2023-08-02T12:28:22.438Z,24.45
2023-08-02T12:29:22.429Z,24.57
2023-08-02T12:30:22.425Z,24.49
2023-08-02T12:31:22.548Z,24.41
2023-08-02T12:32:22.445Z,24.24
2023-08-02T12:33:22.510Z,24.24
2023-08-02T12:34:22.352Z,24.16
2023-08-02T12:35:22.353Z,24.04
2023-08-02T12:36:22.407Z,23.98
2023-08-02T12:37:22.463Z,23.90
2023-08-02T12:38:22.301Z,23.77
2023-08-02T12:39:22.318Z,23.68
2023-08-02T12:40:22.318Z,23.72
2023-08-02T12:41:22.346Z,23.70
2023-08-02T12:42:22.252Z,23.72
2023-08-02T12:43:22.330Z,23.70
2023-08-02T12:44:22.264Z,23.64
2023-08-02T12:45:22.257Z,23.58
2023-08-02T12:46:22.260Z,23.60
2023-08-02T12:47:22.218Z,23.64
2023-08-02T12:48:23.071Z,23.65
2023-08-02T12:49:22.181Z,23.68
2023-08-02T12:50:22.725Z,23.65
2023-08-02T12:51:22.215Z,23.68
2023-08-02T12:52:22.166Z,23.67
2023-08-02T12:53:22.178Z,23.64
2023-08-02T12:54:22.147Z,23.65
2023-08-02T12:55:22.171Z,23.60
2023-08-02T12:56:22.205Z,23.64